sensor_id;sensor_type;location;lat;lon;timestamp;temperature;humidity
8002;DHT22;4046;48.774;8.732;2023-04-23T00:01:29;21.00;85.10
8002;DHT22;4046;48.774;8.732;2023-04-23T00:04:00;21.00;85.10
8002;DHT22;4046;48.774;8.732;2023-04-23T00:06:27;21.00;85.10
8002;DHT22;4046;48.774;8.732;2023-04-23T00:08:56;21.00;85.10
8002;DHT22;4046;48.774;8.732;2023-04-23T00:11:25;21.00;85.10
8002;DHT22;4046;48.774;8.732;2023-04-23T00:13:51;21.00;85.10
8002;DHT22;4046;48.774;8.732;2023-04-23T00:16:18;21.00;85.10
8002;DHT22;4046;48.774;8.732;2023-04-23T00:18:45;21.00;85.10
8002;DHT22;4046;48.774;8.732;2023-04-23T00:21:11;21.00;85.10
8002;DHT22;4046;48.774;8.732;2023-04-23T00:23:38;21.00;85.20
8002;DHT22;4046;48.774;8.732;2023-04-23T00:26:05;21.00;85.10
8002;DHT22;4046;48.774;8.732;2023-04-23T00:28:31;21.00;85.10
8002;DHT22;4046;48.774;8.732;2023-04-23T00:30:57;21.00;85.30
8002;DHT22;4046;48.774;8.732;2023-04-23T00:33:24;21.00;85.20
8002;DHT22;4046;48.774;8.732;2023-04-23T00:35:50;21.00;85.20
8002;DHT22;4046;48.774;8.732;2023-04-23T00:38:16;21.00;85.20
8002;DHT22;4046;48.774;8.732;2023-04-23T00:40:42;21.00;85.20
8002;DHT22;4046;48.774;8.732;2023-04-23T00:43:08;21.00;85.20
8002;DHT22;4046;48.774;8.732;2023-04-23T00:45:36;21.00;85.30
8002;DHT22;4046;48.774;8.732;2023-04-23T00:48:02;21.00;85.20
8002;DHT22;4046;48.774;8.732;2023-04-23T00:50:29;21.00;86.00
8002;DHT22;4046;48.774;8.732;2023-04-23T00:52:55;21.00;85.30
8002;DHT22;4046;48.774;8.732;2023-04-23T00:55:21;21.00;85.30
8002;DHT22;4046;48.774;8.732;2023-04-23T00:57:48;21.00;85.20
8002;DHT22;4046;48.774;8.732;2023-04-23T01:00:14;21.00;85.20
8002;DHT22;4046;48.774;8.732;2023-04-23T01:02:41;21.00;86.00
8002;DHT22;4046;48.774;8.732;2023-04-23T01:05:09;21.00;85.20
8002;DHT22;4046;48.774;8.732;2023-04-23T01:07:36;21.00;85.20
8002;DHT22;4046;48.774;8.732;2023-04-23T01:10:04;21.00;85.20
8002;DHT22;4046;48.774;8.732;2023-04-23T01:12:30;21.00;85.50
8002;DHT22;4046;48.774;8.732;2023-04-23T01:14:57;21.00;85.30
8002;DHT22;4046;48.774;8.732;2023-04-23T01:17:23;21.00;85.30
8002;DHT22;4046;48.774;8.732;2023-04-23T01:19:51;21.00;85.20
8002;DHT22;4046;48.774;8.732;2023-04-23T01:22:17;21.00;86.00
8002;DHT22;4046;48.774;8.732;2023-04-23T01:24:44;21.00;85.20
8002;DHT22;4046;48.774;8.732;2023-04-23T01:27:11;21.00;85.30
8002;DHT22;4046;48.774;8.732;2023-04-23T01:29:38;21.00;85.20
8002;DHT22;4046;48.774;8.732;2023-04-23T01:32:05;21.00;85.20
8002;DHT22;4046;48.774;8.732;2023-04-23T01:34:32;21.00;85.20
8002;DHT22;4046;48.774;8.732;2023-04-23T01:37:00;21.00;85.50
8002;DHT22;4046;48.774;8.732;2023-04-23T01:39:40;21.00;85.30
8002;DHT22;4046;48.774;8.732;2023-04-23T01:42:06;21.00;85.30
8002;DHT22;4046;48.774;8.732;2023-04-23T01:44:33;21.00;85.20
8002;DHT22;4046;48.774;8.732;2023-04-23T01:46:59;21.00;85.30
8002;DHT22;4046;48.774;8.732;2023-04-23T01:49:26;21.00;85.30
8002;DHT22;4046;48.774;8.732;2023-04-23T01:51:52;21.00;85.20
8002;DHT22;4046;48.774;8.732;2023-04-23T01:54:19;21.00;85.30
8002;DHT22;4046;48.774;8.732;2023-04-23T01:56:45;21.00;85.30
8002;DHT22;4046;48.774;8.732;2023-04-23T01:59:11;21.00;85.30
8002;DHT22;4046;48.774;8.732;2023-04-23T02:01:42;21.00;85.40
8002;DHT22;4046;48.774;8.732;2023-04-23T02:04:10;21.00;85.30
8002;DHT22;4046;48.774;8.732;2023-04-23T02:06:37;20.90;85.20
8002;DHT22;4046;48.774;8.732;2023-04-23T02:09:03;21.00;85.30
8002;DHT22;4046;48.774;8.732;2023-04-23T02:11:29;20.90;85.30
8002;DHT22;4046;48.774;8.732;2023-04-23T02:13:56;20.90;85.30
8002;DHT22;4046;48.774;8.732;2023-04-23T02:16:22;20.90;85.30
8002;DHT22;4046;48.774;8.732;2023-04-23T02:18:49;20.90;85.30
8002;DHT22;4046;48.774;8.732;2023-04-23T02:21:15;20.90;85.30
8002;DHT22;4046;48.774;8.732;2023-04-23T02:23:42;20.90;85.30
8002;DHT22;4046;48.774;8.732;2023-04-23T02:26:08;20.90;85.30
8002;DHT22;4046;48.774;8.732;2023-04-23T02:28:34;20.90;85.30
8002;DHT22;4046;48.774;8.732;2023-04-23T02:31:00;20.90;85.20
8002;DHT22;4046;48.774;8.732;2023-04-23T02:33:27;20.90;85.30
8002;DHT22;4046;48.774;8.732;2023-04-23T02:35:53;20.90;85.20
8002;DHT22;4046;48.774;8.732;2023-04-23T02:38:19;20.90;85.30
8002;DHT22;4046;48.774;8.732;2023-04-23T02:40:45;20.90;85.30
8002;DHT22;4046;48.774;8.732;2023-04-23T02:43:12;20.90;85.20
8002;DHT22;4046;48.774;8.732;2023-04-23T02:45:38;20.90;85.20
8002;DHT22;4046;48.774;8.732;2023-04-23T02:48:04;20.90;85.20
8002;DHT22;4046;48.774;8.732;2023-04-23T02:50:30;20.90;85.30
8002;DHT22;4046;48.774;8.732;2023-04-23T02:52:56;20.90;85.30
8002;DHT22;4046;48.774;8.732;2023-04-23T02:55:23;20.90;85.30
8002;DHT22;4046;48.774;8.732;2023-04-23T02:57:50;20.90;85.20
8002;DHT22;4046;48.774;8.732;2023-04-23T03:00:17;20.90;85.30
8002;DHT22;4046;48.774;8.732;2023-04-23T03:02:43;20.90;85.30
8002;DHT22;4046;48.774;8.732;2023-04-23T03:05:09;20.90;85.30
8002;DHT22;4046;48.774;8.732;2023-04-23T03:07:36;20.90;85.30
8002;DHT22;4046;48.774;8.732;2023-04-23T03:10:02;20.90;85.30
8002;DHT22;4046;48.774;8.732;2023-04-23T03:12:28;20.90;85.30
8002;DHT22;4046;48.774;8.732;2023-04-23T03:14:54;20.90;86.00
8002;DHT22;4046;48.774;8.732;2023-04-23T03:17:21;20.90;85.30
8002;DHT22;4046;48.774;8.732;2023-04-23T03:19:47;20.90;85.20
8002;DHT22;4046;48.774;8.732;2023-04-23T03:22:13;20.90;85.20
8002;DHT22;4046;48.774;8.732;2023-04-23T03:24:39;20.90;85.30
8002;DHT22;4046;48.774;8.732;2023-04-23T03:27:06;20.90;85.20
8002;DHT22;4046;48.774;8.732;2023-04-23T03:29:32;20.90;85.20
8002;DHT22;4046;48.774;8.732;2023-04-23T03:31:58;20.90;85.30
8002;DHT22;4046;48.774;8.732;2023-04-23T03:34:25;20.90;85.30
8002;DHT22;4046;48.774;8.732;2023-04-23T03:36:51;20.90;85.30
8002;DHT22;4046;48.774;8.732;2023-04-23T03:39:17;20.90;85.30
8002;DHT22;4046;48.774;8.732;2023-04-23T03:41:43;20.90;85.30
8002;DHT22;4046;48.774;8.732;2023-04-23T03:44:10;20.90;85.30
8002;DHT22;4046;48.774;8.732;2023-04-23T03:46:36;20.90;85.30
8002;DHT22;4046;48.774;8.732;2023-04-23T03:49:03;20.90;85.30
8002;DHT22;4046;48.774;8.732;2023-04-23T03:51:29;20.90;85.30
8002;DHT22;4046;48.774;8.732;2023-04-23T03:53:56;20.90;85.30
8002;DHT22;4046;48.774;8.732;2023-04-23T03:56:22;20.90;85.20
8002;DHT22;4046;48.774;8.732;2023-04-23T03:58:48;20.90;85.30
8002;DHT22;4046;48.774;8.732;2023-04-23T04:01:15;20.90;85.20
8002;DHT22;4046;48.774;8.732;2023-04-23T04:03:41;20.90;85.20
8002;DHT22;4046;48.774;8.732;2023-04-23T04:06:08;20.90;85.20
8002;DHT22;4046;48.774;8.732;2023-04-23T04:08:34;20.90;85.10
8002;DHT22;4046;48.774;8.732;2023-04-23T04:11:00;20.90;85.20
8002;DHT22;4046;48.774;8.732;2023-04-23T04:13:26;20.90;85.20
8002;DHT22;4046;48.774;8.732;2023-04-23T04:15:53;20.90;85.30
8002;DHT22;4046;48.774;8.732;2023-04-23T04:18:19;20.90;85.20
8002;DHT22;4046;48.774;8.732;2023-04-23T04:20:45;20.90;85.20
8002;DHT22;4046;48.774;8.732;2023-04-23T04:23:12;20.90;85.20
8002;DHT22;4046;48.774;8.732;2023-04-23T04:25:38;20.90;85.20
8002;DHT22;4046;48.774;8.732;2023-04-23T04:28:06;20.90;85.20
8002;DHT22;4046;48.774;8.732;2023-04-23T04:30:33;20.90;85.20
8002;DHT22;4046;48.774;8.732;2023-04-23T04:32:59;20.90;85.10
8002;DHT22;4046;48.774;8.732;2023-04-23T04:35:26;20.90;85.20
8002;DHT22;4046;48.774;8.732;2023-04-23T04:37:53;20.90;85.20
8002;DHT22;4046;48.774;8.732;2023-04-23T04:40:20;20.90;85.20
8002;DHT22;4046;48.774;8.732;2023-04-23T04:42:46;20.90;85.10
8002;DHT22;4046;48.774;8.732;2023-04-23T04:45:12;20.90;85.10
8002;DHT22;4046;48.774;8.732;2023-04-23T04:47:38;20.90;85.10
8002;DHT22;4046;48.774;8.732;2023-04-23T04:50:05;20.90;85.20
8002;DHT22;4046;48.774;8.732;2023-04-23T04:52:32;20.90;85.30
8002;DHT22;4046;48.774;8.732;2023-04-23T04:54:58;20.90;85.20
8002;DHT22;4046;48.774;8.732;2023-04-23T04:57:24;20.90;85.20
8002;DHT22;4046;48.774;8.732;2023-04-23T04:59:51;20.90;85.20
8002;DHT22;4046;48.774;8.732;2023-04-23T05:02:17;20.90;85.10
8002;DHT22;4046;48.774;8.732;2023-04-23T05:04:43;20.90;85.20
8002;DHT22;4046;48.774;8.732;2023-04-23T05:07:09;20.90;85.20
8002;DHT22;4046;48.774;8.732;2023-04-23T05:09:36;20.90;85.10
8002;DHT22;4046;48.774;8.732;2023-04-23T05:12:02;20.90;85.10
8002;DHT22;4046;48.774;8.732;2023-04-23T05:14:28;20.90;85.20
8002;DHT22;4046;48.774;8.732;2023-04-23T05:16:55;20.90;85.10
8002;DHT22;4046;48.774;8.732;2023-04-23T05:19:21;20.90;85.10
8002;DHT22;4046;48.774;8.732;2023-04-23T05:21:47;20.90;85.00
8002;DHT22;4046;48.774;8.732;2023-04-23T05:24:13;20.90;85.00
8002;DHT22;4046;48.774;8.732;2023-04-23T05:26:40;20.90;85.00
8002;DHT22;4046;48.774;8.732;2023-04-23T05:29:06;20.90;85.10
8002;DHT22;4046;48.774;8.732;2023-04-23T05:31:32;20.90;85.10
8002;DHT22;4046;48.774;8.732;2023-04-23T05:33:58;20.90;85.00
8002;DHT22;4046;48.774;8.732;2023-04-23T05:36:25;20.90;85.00
8002;DHT22;4046;48.774;8.732;2023-04-23T05:38:51;20.90;85.00
8002;DHT22;4046;48.774;8.732;2023-04-23T05:41:17;20.90;85.00
8002;DHT22;4046;48.774;8.732;2023-04-23T05:43:43;20.90;85.00
8002;DHT22;4046;48.774;8.732;2023-04-23T05:46:09;21.00;85.10
8002;DHT22;4046;48.774;8.732;2023-04-23T05:48:36;21.00;85.00
8002;DHT22;4046;48.774;8.732;2023-04-23T05:51:02;21.00;85.10
8002;DHT22;4046;48.774;8.732;2023-04-23T05:53:28;21.00;85.80
8002;DHT22;4046;48.774;8.732;2023-04-23T05:55:55;21.00;85.00
8002;DHT22;4046;48.774;8.732;2023-04-23T05:58:22;21.00;85.00
8002;DHT22;4046;48.774;8.732;2023-04-23T06:00:48;21.00;85.00
8002;DHT22;4046;48.774;8.732;2023-04-23T06:03:15;21.00;85.00
8002;DHT22;4046;48.774;8.732;2023-04-23T06:05:41;21.00;85.00
8002;DHT22;4046;48.774;8.732;2023-04-23T06:08:08;21.00;85.00
8002;DHT22;4046;48.774;8.732;2023-04-23T06:10:34;21.00;85.00
8002;DHT22;4046;48.774;8.732;2023-04-23T06:13:00;21.00;84.90
8002;DHT22;4046;48.774;8.732;2023-04-23T06:15:27;21.00;84.90
8002;DHT22;4046;48.774;8.732;2023-04-23T06:17:53;21.00;84.90
8002;DHT22;4046;48.774;8.732;2023-04-23T06:20:19;21.00;84.80
8002;DHT22;4046;48.774;8.732;2023-04-23T06:22:45;21.00;84.90
8002;DHT22;4046;48.774;8.732;2023-04-23T06:25:11;21.00;84.90
8002;DHT22;4046;48.774;8.732;2023-04-23T06:27:38;21.00;84.90
8002;DHT22;4046;48.774;8.732;2023-04-23T06:30:04;21.00;84.90
8002;DHT22;4046;48.774;8.732;2023-04-23T06:32:31;21.00;84.90
8002;DHT22;4046;48.774;8.732;2023-04-23T06:34:57;21.00;84.90
8002;DHT22;4046;48.774;8.732;2023-04-23T06:37:23;21.10;84.90
8002;DHT22;4046;48.774;8.732;2023-04-23T06:39:51;21.20;84.80
8002;DHT22;4046;48.774;8.732;2023-04-23T06:42:17;21.20;84.60
8002;DHT22;4046;48.774;8.732;2023-04-23T06:44:43;21.30;84.60
8002;DHT22;4046;48.774;8.732;2023-04-23T06:47:12;21.30;84.50
8002;DHT22;4046;48.774;8.732;2023-04-23T06:49:39;21.30;84.50
8002;DHT22;4046;48.774;8.732;2023-04-23T06:52:05;21.30;84.50
8002;DHT22;4046;48.774;8.732;2023-04-23T06:54:31;21.30;84.50
8002;DHT22;4046;48.774;8.732;2023-04-23T06:56:58;21.30;84.50
8002;DHT22;4046;48.774;8.732;2023-04-23T06:59:24;21.30;84.50
8002;DHT22;4046;48.774;8.732;2023-04-23T07:01:50;21.30;84.60
8002;DHT22;4046;48.774;8.732;2023-04-23T07:04:16;21.20;84.50
8002;DHT22;4046;48.774;8.732;2023-04-23T07:06:42;21.20;84.50
8002;DHT22;4046;48.774;8.732;2023-04-23T07:09:09;21.20;84.60
8002;DHT22;4046;48.774;8.732;2023-04-23T07:11:35;21.20;84.60
8002;DHT22;4046;48.774;8.732;2023-04-23T07:14:02;21.20;84.60
8002;DHT22;4046;48.774;8.732;2023-04-23T07:16:28;21.20;84.70
8002;DHT22;4046;48.774;8.732;2023-04-23T07:18:59;21.20;84.70
8002;DHT22;4046;48.774;8.732;2023-04-23T07:21:27;21.20;84.70
8002;DHT22;4046;48.774;8.732;2023-04-23T07:23:55;21.20;84.80
8002;DHT22;4046;48.774;8.732;2023-04-23T07:26:21;21.10;84.60
8002;DHT22;4046;48.774;8.732;2023-04-23T07:28:47;21.10;84.60
8002;DHT22;4046;48.774;8.732;2023-04-23T07:31:16;21.10;84.70
8002;DHT22;4046;48.774;8.732;2023-04-23T07:33:42;21.10;84.60
8002;DHT22;4046;48.774;8.732;2023-04-23T07:36:09;21.10;84.60
8002;DHT22;4046;48.774;8.732;2023-04-23T07:38:35;21.10;84.60
8002;DHT22;4046;48.774;8.732;2023-04-23T07:41:01;21.20;84.80
8002;DHT22;4046;48.774;8.732;2023-04-23T07:43:27;21.10;84.60
8002;DHT22;4046;48.774;8.732;2023-04-23T07:45:54;21.20;84.60
8002;DHT22;4046;48.774;8.732;2023-04-23T07:48:20;21.20;84.50
8002;DHT22;4046;48.774;8.732;2023-04-23T07:50:46;21.30;85.30
8002;DHT22;4046;48.774;8.732;2023-04-23T07:53:12;21.30;84.50
8002;DHT22;4046;48.774;8.732;2023-04-23T07:55:38;21.30;84.50
8002;DHT22;4046;48.774;8.732;2023-04-23T07:58:05;21.30;84.70
8002;DHT22;4046;48.774;8.732;2023-04-23T08:00:31;21.40;84.50
8002;DHT22;4046;48.774;8.732;2023-04-23T08:02:57;21.40;84.50
8002;DHT22;4046;48.774;8.732;2023-04-23T08:05:24;21.40;84.40
8002;DHT22;4046;48.774;8.732;2023-04-23T08:07:51;21.40;84.30
8002;DHT22;4046;48.774;8.732;2023-04-23T08:10:18;21.50;84.30
8002;DHT22;4046;48.774;8.732;2023-04-23T08:12:44;21.50;84.30
8002;DHT22;4046;48.774;8.732;2023-04-23T08:15:11;21.50;85.00
8002;DHT22;4046;48.774;8.732;2023-04-23T08:17:37;21.50;84.20
8002;DHT22;4046;48.774;8.732;2023-04-23T08:20:03;21.50;84.10
8002;DHT22;4046;48.774;8.732;2023-04-23T08:22:32;21.40;84.10
8002;DHT22;4046;48.774;8.732;2023-04-23T08:24:58;21.40;84.20
8002;DHT22;4046;48.774;8.732;2023-04-23T08:27:24;21.40;84.30
8002;DHT22;4046;48.774;8.732;2023-04-23T08:29:50;21.40;84.30
8002;DHT22;4046;48.774;8.732;2023-04-23T08:32:17;21.40;84.30
8002;DHT22;4046;48.774;8.732;2023-04-23T08:34:43;21.40;84.40
8002;DHT22;4046;48.774;8.732;2023-04-23T08:37:09;21.30;84.40
8002;DHT22;4046;48.774;8.732;2023-04-23T08:39:36;21.30;84.30
8002;DHT22;4046;48.774;8.732;2023-04-23T08:42:14;21.40;84.40
8002;DHT22;4046;48.774;8.732;2023-04-23T08:44:45;21.40;84.40
8002;DHT22;4046;48.774;8.732;2023-04-23T08:47:16;21.40;84.40
8002;DHT22;4046;48.774;8.732;2023-04-23T08:49:44;21.30;84.30
8002;DHT22;4046;48.774;8.732;2023-04-23T08:52:15;21.30;84.30
8002;DHT22;4046;48.774;8.732;2023-04-23T08:54:45;21.40;84.40
8002;DHT22;4046;48.774;8.732;2023-04-23T08:57:13;21.40;84.30
8002;DHT22;4046;48.774;8.732;2023-04-23T08:59:42;21.40;84.30
8002;DHT22;4046;48.774;8.732;2023-04-23T09:02:08;21.40;84.30
8002;DHT22;4046;48.774;8.732;2023-04-23T09:04:36;21.50;84.30
8002;DHT22;4046;48.774;8.732;2023-04-23T09:07:03;21.50;84.20
8002;DHT22;4046;48.774;8.732;2023-04-23T09:09:37;21.50;84.30
8002;DHT22;4046;48.774;8.732;2023-04-23T09:12:05;21.50;84.30
8002;DHT22;4046;48.774;8.732;2023-04-23T09:14:33;21.50;84.20
8002;DHT22;4046;48.774;8.732;2023-04-23T09:16:59;21.50;84.20
8002;DHT22;4046;48.774;8.732;2023-04-23T09:19:27;21.60;84.10
8002;DHT22;4046;48.774;8.732;2023-04-23T09:21:54;21.60;84.00
8002;DHT22;4046;48.774;8.732;2023-04-23T09:24:24;21.60;84.00
8002;DHT22;4046;48.774;8.732;2023-04-23T09:26:51;21.70;84.00
8002;DHT22;4046;48.774;8.732;2023-04-23T09:29:22;21.70;84.00
8002;DHT22;4046;48.774;8.732;2023-04-23T09:31:50;21.70;83.90
8002;DHT22;4046;48.774;8.732;2023-04-23T09:34:18;21.70;83.90
8002;DHT22;4046;48.774;8.732;2023-04-23T09:36:45;21.70;83.90
8002;DHT22;4046;48.774;8.732;2023-04-23T09:39:13;21.70;83.90
8002;DHT22;4046;48.774;8.732;2023-04-23T09:41:39;21.70;83.80
8002;DHT22;4046;48.774;8.732;2023-04-23T09:44:06;21.80;83.80
8002;DHT22;4046;48.774;8.732;2023-04-23T09:46:38;21.80;83.70
8002;DHT22;4046;48.774;8.732;2023-04-23T09:49:05;21.80;83.60
8002;DHT22;4046;48.774;8.732;2023-04-23T09:51:36;21.80;83.60
8002;DHT22;4046;48.774;8.732;2023-04-23T09:54:02;21.80;83.60
8002;DHT22;4046;48.774;8.732;2023-04-23T09:56:30;21.80;83.60
8002;DHT22;4046;48.774;8.732;2023-04-23T09:58:57;21.80;83.60
8002;DHT22;4046;48.774;8.732;2023-04-23T10:01:27;21.80;83.60
8002;DHT22;4046;48.774;8.732;2023-04-23T10:03:54;21.80;83.60
8002;DHT22;4046;48.774;8.732;2023-04-23T10:06:29;21.80;83.60
8002;DHT22;4046;48.774;8.732;2023-04-23T10:08:57;21.80;83.60
8002;DHT22;4046;48.774;8.732;2023-04-23T10:11:24;21.80;83.60
8002;DHT22;4046;48.774;8.732;2023-04-23T10:13:52;21.80;83.60
8002;DHT22;4046;48.774;8.732;2023-04-23T10:16:21;21.80;83.60
8002;DHT22;4046;48.774;8.732;2023-04-23T10:18:50;21.80;83.60
8002;DHT22;4046;48.774;8.732;2023-04-23T10:21:18;21.80;83.50
8002;DHT22;4046;48.774;8.732;2023-04-23T10:23:46;21.80;83.50
8002;DHT22;4046;48.774;8.732;2023-04-23T10:26:14;21.80;83.60
8002;DHT22;4046;48.774;8.732;2023-04-23T10:28:47;21.70;83.50
8002;DHT22;4046;48.774;8.732;2023-04-23T10:31:14;21.80;83.60
8002;DHT22;4046;48.774;8.732;2023-04-23T10:33:42;21.80;83.60
8002;DHT22;4046;48.774;8.732;2023-04-23T10:36:08;21.70;83.50
8002;DHT22;4046;48.774;8.732;2023-04-23T10:38:36;21.80;83.60
8002;DHT22;4046;48.774;8.732;2023-04-23T10:41:03;21.80;83.50
8002;DHT22;4046;48.774;8.732;2023-04-23T10:43:30;21.80;83.50
8002;DHT22;4046;48.774;8.732;2023-04-23T10:45:56;21.80;83.50
8002;DHT22;4046;48.774;8.732;2023-04-23T10:48:22;21.70;83.50
8002;DHT22;4046;48.774;8.732;2023-04-23T10:50:56;21.80;83.50
8002;DHT22;4046;48.774;8.732;2023-04-23T10:53:23;21.80;83.50
8002;DHT22;4046;48.774;8.732;2023-04-23T10:56:06;21.80;83.50
8002;DHT22;4046;48.774;8.732;2023-04-23T10:58:48;21.80;83.40
8002;DHT22;4046;48.774;8.732;2023-04-23T11:01:17;21.90;83.50
8002;DHT22;4046;48.774;8.732;2023-04-23T11:03:44;21.90;83.40
8002;DHT22;4046;48.774;8.732;2023-04-23T11:11:59;21.80;83.30
8002;DHT22;4046;48.774;8.732;2023-04-23T11:14:33;21.80;83.40
8002;DHT22;4046;48.774;8.732;2023-04-23T11:17:05;21.80;83.30
8002;DHT22;4046;48.774;8.732;2023-04-23T11:19:36;21.80;83.30
8002;DHT22;4046;48.774;8.732;2023-04-23T11:22:11;21.80;83.30
8002;DHT22;4046;48.774;8.732;2023-04-23T11:24:42;21.80;83.30
8002;DHT22;4046;48.774;8.732;2023-04-23T11:27:14;21.80;83.40
8002;DHT22;4046;48.774;8.732;2023-04-23T11:29:42;21.80;83.40
8002;DHT22;4046;48.774;8.732;2023-04-23T11:32:10;21.80;83.00
8002;DHT22;4046;48.774;8.732;2023-04-23T11:34:39;21.80;83.10
8002;DHT22;4046;48.774;8.732;2023-04-23T11:37:09;21.90;82.60
8002;DHT22;4046;48.774;8.732;2023-04-23T11:39:35;22.00;82.40
8002;DHT22;4046;48.774;8.732;2023-04-23T11:42:02;22.10;82.50
8002;DHT22;4046;48.774;8.732;2023-04-23T11:44:30;22.10;83.00
8002;DHT22;4046;48.774;8.732;2023-04-23T11:47:00;22.10;83.00
8002;DHT22;4046;48.774;8.732;2023-04-23T11:49:27;22.10;82.90
8002;DHT22;4046;48.774;8.732;2023-04-23T11:51:53;22.10;83.00
8002;DHT22;4046;48.774;8.732;2023-04-23T11:54:25;22.10;82.40
8002;DHT22;4046;48.774;8.732;2023-04-23T11:56:52;22.10;82.40
8002;DHT22;4046;48.774;8.732;2023-04-23T11:59:19;22.10;82.80
8002;DHT22;4046;48.774;8.732;2023-04-23T12:01:47;22.10;82.50
8002;DHT22;4046;48.774;8.732;2023-04-23T12:04:19;22.20;82.30
8002;DHT22;4046;48.774;8.732;2023-04-23T12:06:47;22.20;82.40
8002;DHT22;4046;48.774;8.732;2023-04-23T12:09:14;22.20;82.80
8002;DHT22;4046;48.774;8.732;2023-04-23T12:11:42;22.10;82.50
8002;DHT22;4046;48.774;8.732;2023-04-23T12:14:10;22.10;82.40
8002;DHT22;4046;48.774;8.732;2023-04-23T12:16:39;22.10;82.70
8002;DHT22;4046;48.774;8.732;2023-04-23T12:19:08;22.10;82.80
8002;DHT22;4046;48.774;8.732;2023-04-23T12:21:34;22.00;83.00
8002;DHT22;4046;48.774;8.732;2023-04-23T12:24:11;22.00;83.20
8002;DHT22;4046;48.774;8.732;2023-04-23T12:26:38;21.90;83.10
8002;DHT22;4046;48.774;8.732;2023-04-23T12:29:06;21.90;83.20
8002;DHT22;4046;48.774;8.732;2023-04-23T12:31:32;21.90;83.10
8002;DHT22;4046;48.774;8.732;2023-04-23T12:34:06;21.90;83.10
8002;DHT22;4046;48.774;8.732;2023-04-23T12:36:35;21.90;83.20
8002;DHT22;4046;48.774;8.732;2023-04-23T12:39:23;21.80;83.20
8002;DHT22;4046;48.774;8.732;2023-04-23T12:44:25;21.70;83.20
8002;DHT22;4046;48.774;8.732;2023-04-23T12:46:56;21.70;83.30
8002;DHT22;4046;48.774;8.732;2023-04-23T12:49:22;21.70;83.40
8002;DHT22;4046;48.774;8.732;2023-04-23T12:51:48;21.70;83.40
8002;DHT22;4046;48.774;8.732;2023-04-23T12:54:15;21.70;83.30
8002;DHT22;4046;48.774;8.732;2023-04-23T12:56:41;21.70;83.40
8002;DHT22;4046;48.774;8.732;2023-04-23T12:59:07;21.70;83.40
8002;DHT22;4046;48.774;8.732;2023-04-23T13:01:33;21.70;83.40
8002;DHT22;4046;48.774;8.732;2023-04-23T13:04:00;21.70;83.40
8002;DHT22;4046;48.774;8.732;2023-04-23T13:06:26;21.70;83.50
8002;DHT22;4046;48.774;8.732;2023-04-23T13:08:54;21.70;83.20
8002;DHT22;4046;48.774;8.732;2023-04-23T13:11:21;21.70;83.10
8002;DHT22;4046;48.774;8.732;2023-04-23T13:13:47;21.70;83.10
8002;DHT22;4046;48.774;8.732;2023-04-23T13:16:14;21.60;83.30
8002;DHT22;4046;48.774;8.732;2023-04-23T13:18:40;21.60;83.30
8002;DHT22;4046;48.774;8.732;2023-04-23T13:21:08;21.60;83.30
8002;DHT22;4046;48.774;8.732;2023-04-23T13:23:34;21.60;83.40
8002;DHT22;4046;48.774;8.732;2023-04-23T13:26:02;21.60;83.40
8002;DHT22;4046;48.774;8.732;2023-04-23T13:28:29;21.60;83.40
8002;DHT22;4046;48.774;8.732;2023-04-23T13:30:55;21.60;83.30
8002;DHT22;4046;48.774;8.732;2023-04-23T13:33:21;21.70;83.20
8002;DHT22;4046;48.774;8.732;2023-04-23T13:35:47;21.70;83.10
8002;DHT22;4046;48.774;8.732;2023-04-23T13:38:14;21.70;83.00
8002;DHT22;4046;48.774;8.732;2023-04-23T13:40:40;21.70;82.80
8002;DHT22;4046;48.774;8.732;2023-04-23T13:43:06;21.70;82.60
8002;DHT22;4046;48.774;8.732;2023-04-23T13:45:33;21.80;82.40
8002;DHT22;4046;48.774;8.732;2023-04-23T13:47:59;21.70;82.20
8002;DHT22;4046;48.774;8.732;2023-04-23T13:50:27;21.80;82.60
8002;DHT22;4046;48.774;8.732;2023-04-23T13:52:53;21.70;82.60
8002;DHT22;4046;48.774;8.732;2023-04-23T13:55:20;21.70;82.50
8002;DHT22;4046;48.774;8.732;2023-04-23T13:57:47;21.80;80.30
8002;DHT22;4046;48.774;8.732;2023-04-23T14:00:13;21.70;78.80
8002;DHT22;4046;48.774;8.732;2023-04-23T14:02:40;21.80;78.50
8002;DHT22;4046;48.774;8.732;2023-04-23T14:05:07;21.80;78.40
8002;DHT22;4046;48.774;8.732;2023-04-23T14:07:36;21.80;79.10
8002;DHT22;4046;48.774;8.732;2023-04-23T14:10:03;21.70;77.70
8002;DHT22;4046;48.774;8.732;2023-04-23T14:12:29;21.70;77.70
8002;DHT22;4046;48.774;8.732;2023-04-23T14:14:56;21.70;77.50
8002;DHT22;4046;48.774;8.732;2023-04-23T14:17:22;21.70;77.50
8002;DHT22;4046;48.774;8.732;2023-04-23T14:19:49;21.70;77.80
8002;DHT22;4046;48.774;8.732;2023-04-23T14:22:15;21.70;77.90
8002;DHT22;4046;48.774;8.732;2023-04-23T14:24:45;21.70;78.30
8002;DHT22;4046;48.774;8.732;2023-04-23T14:27:14;21.70;78.00
8002;DHT22;4046;48.774;8.732;2023-04-23T14:29:45;21.70;78.20
8002;DHT22;4046;48.774;8.732;2023-04-23T14:32:15;21.60;78.20
8002;DHT22;4046;48.774;8.732;2023-04-23T14:34:43;21.60;78.60
8002;DHT22;4046;48.774;8.732;2023-04-23T14:37:09;21.60;78.60
8002;DHT22;4046;48.774;8.732;2023-04-23T14:39:36;21.60;79.00
8002;DHT22;4046;48.774;8.732;2023-04-23T14:42:02;21.50;79.30
8002;DHT22;4046;48.774;8.732;2023-04-23T14:44:29;21.50;78.80
8002;DHT22;4046;48.774;8.732;2023-04-23T14:46:55;21.50;79.30
8002;DHT22;4046;48.774;8.732;2023-04-23T14:49:22;21.50;79.90
8002;DHT22;4046;48.774;8.732;2023-04-23T14:51:50;21.50;80.10
8002;DHT22;4046;48.774;8.732;2023-04-23T14:54:20;21.50;79.80
8002;DHT22;4046;48.774;8.732;2023-04-23T14:56:46;21.50;79.50
8002;DHT22;4046;48.774;8.732;2023-04-23T14:59:13;21.50;79.10
8002;DHT22;4046;48.774;8.732;2023-04-23T15:01:39;21.50;79.20
8002;DHT22;4046;48.774;8.732;2023-04-23T15:04:05;21.50;79.10
8002;DHT22;4046;48.774;8.732;2023-04-23T15:06:32;21.50;78.90
8002;DHT22;4046;48.774;8.732;2023-04-23T15:08:58;21.50;78.70
8002;DHT22;4046;48.774;8.732;2023-04-23T15:11:24;21.50;79.30
8002;DHT22;4046;48.774;8.732;2023-04-23T15:16:28;21.50;79.40
8002;DHT22;4046;48.774;8.732;2023-04-23T15:18:57;21.50;79.00
8002;DHT22;4046;48.774;8.732;2023-04-23T15:21:24;21.50;79.30
8002;DHT22;4046;48.774;8.732;2023-04-23T15:23:51;21.50;79.30
8002;DHT22;4046;48.774;8.732;2023-04-23T15:26:18;21.50;79.60
8002;DHT22;4046;48.774;8.732;2023-04-23T15:28:45;21.50;79.60
8002;DHT22;4046;48.774;8.732;2023-04-23T15:31:11;21.50;79.60
8002;DHT22;4046;48.774;8.732;2023-04-23T15:33:38;21.50;79.40
8002;DHT22;4046;48.774;8.732;2023-04-23T15:36:06;21.50;79.30
8002;DHT22;4046;48.774;8.732;2023-04-23T15:38:33;21.50;79.60
8002;DHT22;4046;48.774;8.732;2023-04-23T15:40:59;21.50;79.70
8002;DHT22;4046;48.774;8.732;2023-04-23T15:43:25;21.50;79.90
8002;DHT22;4046;48.774;8.732;2023-04-23T15:45:52;21.50;79.80
8002;DHT22;4046;48.774;8.732;2023-04-23T15:48:20;21.50;79.70
8002;DHT22;4046;48.774;8.732;2023-04-23T15:50:46;21.50;79.70
8002;DHT22;4046;48.774;8.732;2023-04-23T15:53:13;21.50;79.40
8002;DHT22;4046;48.774;8.732;2023-04-23T15:55:39;21.50;80.10
8002;DHT22;4046;48.774;8.732;2023-04-23T15:58:06;21.50;80.00
8002;DHT22;4046;48.774;8.732;2023-04-23T16:00:33;21.40;80.50
8002;DHT22;4046;48.774;8.732;2023-04-23T16:02:59;21.40;80.80
8002;DHT22;4046;48.774;8.732;2023-04-23T16:05:26;21.40;80.90
8002;DHT22;4046;48.774;8.732;2023-04-23T16:07:54;21.40;81.00
8002;DHT22;4046;48.774;8.732;2023-04-23T16:10:20;21.40;81.10
8002;DHT22;4046;48.774;8.732;2023-04-23T16:12:47;21.30;81.10